Flight Track Log - Related Links

Times and Time Zones

All times are in EDT time to prevent confusion due to time zone crossing. See the CSZ9122 flight status page for this flight to view local times or setup timezone preferences in your user account.

Time Position Orientation Groundspeed Altitude Reporting Facility
EDT Latitude Longitude Course Direction KTS MPH feet Rate Location/Type
Fri 08:40:00 AM 37.3358 113.3061 127° Southeast  Level Estimated
Fri 08:41:00 AM 37.2768 113.4023 128° Southeast  Level Estimated
Fri 08:42:00 AM 37.2177 113.4983 128° Southeast  Level Estimated
Fri 08:43:00 AM 37.1585 113.5942 128° Southeast  Level Estimated
Fri 08:44:00 AM 37.0992 113.6900 128° Southeast  Level Estimated
Fri 08:45:00 AM 37.0399 113.7856 128° Southeast  Level Estimated
Fri 08:46:00 AM 36.9804 113.8810 128° Southeast  Level Estimated
Fri 08:47:00 AM 36.9209 113.9763 128° Southeast  Level Estimated
Fri 08:48:00 AM 36.8614 114.0715 128° Southeast  Level Estimated
Fri 08:49:00 AM 36.8017 114.1665 128° Southeast  Level Estimated
Fri 08:50:00 AM 36.7420 114.2613 128° Southeast  Level Estimated
Fri 08:51:00 AM 36.6822 114.3560 128° Southeast  Level Estimated
Fri 08:52:00 AM 36.6223 114.4506 128° Southeast  Level Estimated
Fri 08:53:00 AM 36.5624 114.5450 128° Southeast  Level Estimated
Fri 08:54:00 AM 36.5023 114.6393 128° Southeast  Level Estimated
Fri 08:55:00 AM 36.4422 114.7334 128° Southeast  Level Estimated
Fri 08:56:00 AM 36.3820 114.8274 128° Southeast  Level Estimated
Fri 08:57:00 AM 36.3218 114.9212 129° Southeast  Level Estimated
Fri 08:58:00 AM 36.2615 115.0149 129° Southeast  Level Estimated
Fri 08:59:00 AM 36.2011 115.1084 129° Southeast  Level Estimated
Fri 09:00:00 AM 36.1406 115.2018 129° Southeast  Level Estimated
Fri 09:01:00 AM 36.0801 115.2951 129° Southeast  Level Estimated
Fri 09:02:00 AM 36.0195 115.3882 129° Southeast  Level Estimated
Fri 09:03:00 AM 35.9588 115.4811 129° Southeast  Level Estimated
Fri 09:04:00 AM 35.8980 115.5740 129° Southeast  Level Estimated
Fri 09:05:00 AM 35.8372 115.6667 129° Southeast  Level Estimated
Fri 09:06:00 AM 35.7763 115.7592 129° Southeast  Level Estimated
Fri 09:07:00 AM 35.7154 115.8516 129° Southeast  Level Estimated
Fri 09:08:00 AM 35.6543 115.9438 129° Southeast  Level Estimated
Fri 09:09:00 AM 35.5932 116.0360 129° Southeast  Level Estimated
Fri 09:10:00 AM 35.5320 116.1279 129° Southeast  Level Estimated
Fri 09:11:00 AM 35.4708 116.2198 129° Southeast  Level Estimated
Fri 09:12:00 AM 35.4095 116.3115 129° Southeast  Level Estimated
Fri 09:13:00 AM 35.3481 116.4030 129° Southeast  Level Estimated
Fri 09:14:00 AM 35.2866 116.4944 129° Southeast  Level Estimated
Fri 09:15:00 AM 35.2251 116.5857 130° Southeast  Level Estimated
Fri 09:16:00 AM 35.1635 116.6768 130° Southeast  Level Estimated
Fri 09:17:00 AM 35.1018 116.7678 130° Southeast  Level Estimated
Fri 09:18:00 AM 35.0401 116.8587 130° Southeast  Level Estimated
Fri 09:19:00 AM 34.9783 116.9494 130° Southeast  Level Estimated
Fri 09:20:00 AM 34.9165 117.0400 130° Southeast  Level Estimated
Fri 09:21:00 AM 34.8545 117.1305 130° Southeast  Level Estimated
Fri 09:22:00 AM 34.7925 117.2208 130° Southeast  Level Estimated
Fri 09:23:00 AM 34.7304 117.3110 130° Southeast  Level Estimated
Fri 09:24:00 AM 34.6683 117.4010 130° Southeast  Level Estimated
Fri 09:25:00 AM 34.6061 117.4909 130° Southeast  Level Estimated
Fri 09:26:00 AM 34.5439 117.5807 130° Southeast  Level Estimated
Fri 09:27:00 AM 34.4815 117.6703 130° Southeast  Level Estimated
Fri 09:28:00 AM 34.4191 117.7598 130° Southeast  Level Estimated
Fri 09:29:00 AM 34.3567 117.8492 130° Southeast  Level Estimated
Fri 09:30:00 AM 34.2942 117.9384 130° Southeast  Level Estimated
Fri 09:31:00 AM 34.2316 118.0275 130° Southeast  Level Estimated
Fri 09:32:00 AM 34.1689 118.1165 130° Southeast  Level Estimated
Fri 09:33:00 AM 34.1062 118.2054 130° Southeast  Level Estimated
Fri 09:34:00 AM 34.0434 118.2941 130° Southeast  Level Estimated
Fri 09:35:00 AM 33.9806 118.3826 131° Southeast  Level Estimated
Fri 09:36:00 AM 33.9177 118.4711 131° Southeast  Level Estimated
Fri 09:37:00 AM 33.8547 118.5594 131° Southeast  Level Estimated
Fri 09:38:00 AM 33.7917 118.6476 131° Southeast  Level Estimated
Fri 09:39:00 AM 33.7286 118.7356 131° Southeast  Level Estimated
Fri 09:40:00 AM 33.6654 118.8236 131° Southeast  Level Estimated
Fri 09:41:00 AM 33.6022 118.9114 131° Southeast  Level Estimated
Fri 09:42:00 AM 33.5389 118.9990 131° Southeast  Level Estimated
Fri 09:43:00 AM 33.4756 119.0866 131° Southeast  Level Estimated
Fri 09:44:00 AM 33.4122 119.1740 131° Southeast  Level Estimated
Fri 09:45:00 AM 33.3487 119.2613 131° Southeast  Level Estimated
Fri 09:46:00 AM 33.2852 119.3484 131° Southeast  Level Estimated
Fri 09:47:00 AM 33.2216 119.4355 131° Southeast  Level Estimated
Fri 09:48:00 AM 33.1579 119.5224 131° Southeast  Level Estimated
Fri 09:49:00 AM 33.0942 119.6092 131° Southeast  Level Estimated
Fri 09:50:00 AM 33.0304 119.6958 131° Southeast  Level Estimated
Fri 09:51:00 AM 32.9666 119.7823 131° Southeast  Level Estimated
Fri 09:52:00 AM 32.9027 119.8687 131° Southeast  Level Estimated
Fri 09:53:00 AM 32.8388 119.9550 131° Southeast  Level Estimated
Fri 09:54:00 AM 32.7748 120.0412 131° Southeast  Level Estimated
Fri 09:55:00 AM 32.7107 120.1272 131° Southeast  Level Estimated
Fri 09:56:00 AM 32.6466 120.2131 132° Southeast  Level Estimated
Fri 09:57:00 AM 32.5824 120.2989 132° Southeast  Level Estimated
Fri 09:58:00 AM 32.5182 120.3846 132° Southeast  Level Estimated
Fri 09:59:00 AM 32.4538 120.4701 132° Southeast  Level Estimated
Fri 10:00:00 AM 32.3895 120.5555 132° Southeast  Level Estimated
Fri 10:01:00 AM 32.3251 120.6408 132° Southeast  Level Estimated
Fri 10:02:00 AM 32.2606 120.7260 132° Southeast  Level Estimated
Fri 10:03:00 AM 32.1961 120.8110 132° Southeast  Level Estimated
Fri 10:04:00 AM 32.1315 120.8960 132° Southeast  Level Estimated
Fri 10:05:00 AM 32.0708 120.9756 132° Southeast  Level Estimated
Fri 10:06:00 AM 32.0708 120.9756 North  Level Estimated
Fri 10:07:00 AM 32.0708 120.9756 North  Level Estimated
Fri 10:08:00 AM 32.0708 120.9756 North  Level Estimated
Fri 10:09:00 AM 32.0708 120.9756 North  Level Estimated
Fri 10:10:00 AM 32.0708 120.9756 North  Level Estimated
Fri 10:11:00 AM 32.0708 120.9756 North  Level Estimated
Fri 10:12:00 AM 32.0708 120.9756 North  Level Estimated
Fri 10:13:00 AM 32.0708 120.9756 North  Level Estimated
Fri 10:14:00 AM 32.0708 120.9756 North  Level Estimated
Fri 10:15:00 AM 32.0708 120.9756 North  Level Estimated
Fri 10:16:00 AM 32.0708 120.9756 North  Level Estimated
Fri 10:17:00 AM 32.0708 120.9756 North  Level Estimated
Fri 10:18:00 AM 32.0708 120.9756 North  Level Estimated
Fri 10:19:00 AM 32.0708 120.9756 North  Level Estimated
Fri 10:20:00 AM 32.0708 120.9756 North  Level Estimated

Login

Don't have an account? Register now (free) for customized features, flight alerts, and more!